This is the latest recevied weather packets stored in our database for station/object PY3MO-13. If no packets are shown the sender has not sent any weather packets the latest 10 day(s).
| Time | Temp. | Humidity | Pressure | Rain* | Wind** | Luminosity | Snow |
|---|---|---|---|---|---|---|---|
| 1778342164 | 13.33° C | 47% | 1016 hPa | 0 mm | - | - | - |
| 1778342099 | 13.33° C | 46% | 1016.2 hPa | 0 mm | - | - | - |
| 1778341864 | 13.89° C | 46% | 1016.1 hPa | 0 mm | - | - | - |
| 1778341563 | 13.89° C | 45% | 1016.1 hPa | 0 mm | - | - | - |
| 1778341499 | 13.89° C | 45% | 1016.3 hPa | 0 mm | - | - | - |
| 1778341263 | 13.89° C | 44% | 1016.4 hPa | 0 mm | - | - | - |
| 1778341198 | 13.89° C | 44% | 1016.3 hPa | 0 mm | - | - | - |
| 1778340963 | 14.44° C | 44% | 1016.3 hPa | 0 mm | - | - | - |
| 1778340664 | 14.44° C | 46% | 1016.5 hPa | 0 mm | - | - | - |
| 1778340363 | 14.44° C | 46% | 1016.4 hPa | 0 mm | - | - | - |
| 1778340299 | 14.44° C | 46% | 1016.3 hPa | 0 mm | - | - | - |
| 1778340063 | 14.44° C | 47% | 1016.2 hPa | 0 mm | - | - | - |
| 1778339998 | 13.89° C | 45% | 1016.3 hPa | 0 mm | - | - | - |
| 1778339764 | 14.44° C | 45% | 1016.4 hPa | 0 mm | - | - | - |
| 1778339699 | 14.44° C | 45% | 1016.3 hPa | 0 mm | - | - | - |
| 1778339463 | 14.44° C | 47% | 1016.3 hPa | 0 mm | - | - | - |
| 1778339163 | 13.33° C | 49% | 1016.4 hPa | 0 mm | - | - | - |
| 1778301006 | 8.33° C | 81% | 1012.1 hPa | 0 mm | - | - | - |
| 1778300706 | 8.33° C | 81% | 1012.4 hPa | 0 mm | - | - | - |
| 1778300406 | 8.33° C | 81% | 1012.3 hPa | 0 mm | - | - | - |
| 1778300107 | 8.33° C | 80% | 1012.1 hPa | 0 mm | - | - | - |
| 1778299807 | 8.33° C | 80% | 1011.9 hPa | 0 mm | - | - | - |
| 1778299506 | 8.33° C | 81% | 1012.1 hPa | 0 mm | - | - | - |
| 1778299206 | 8.33° C | 81% | 1011.8 hPa | 0 mm | - | - | - |
| 1778298907 | 8.33° C | 81% | 1011.6 hPa | 0 mm | - | - | - |
* Rain latest hour (hover to see other rain measurements)
** Current wind speed in m/s (hover to see current wind gust speed)